Time;durP1;ratioP1;P1;durP2;ratioP2;P2;SDS_P1;SDS_P2;PMS_P1;PMS_P2;Temp;Humidity;BMP_temperature;BMP_pressure;BME280_temperature;BME280_humidity;BME280_pressure;Samples;Min_cycle;Max_cycle;Signal;HPM_P1;HPM_P2
2024/01/22 00:00:13;;;;;;;13.38;3.03;;;24.50;99.90;;;;;;5050494;28;20239;-77
2024/01/22 00:02:44;;;;;;;8.98;2.33;;;24.50;99.90;;;;;;5040563;28;20247;-78
2024/01/22 00:05:18;;;;;;;8.95;2.35;;;24.50;99.90;;;;;;5039849;28;20215;-77
2024/01/22 00:07:49;;;;;;;7.68;2.17;;;24.50;99.90;;;;;;5044761;28;20235;-79
2024/01/22 00:10:22;;;;;;;7.47;1.98;;;24.50;99.90;;;;;;5038855;28;20358;-79
2024/01/22 00:12:52;;;;;;;9.65;2.40;;;24.40;99.90;;;;;;5042428;28;20328;-79
2024/01/22 00:15:23;;;;;;;9.50;2.40;;;24.40;99.90;;;;;;5045126;28;20708;-78
2024/01/22 00:17:54;;;;;;;10.65;2.45;;;24.50;99.90;;;;;;5039495;28;20219;-79
2024/01/22 00:20:25;;;;;;;9.85;2.35;;;24.50;99.90;;;;;;5057676;28;20223;-79
2024/01/22 00:22:55;;;;;;;10.82;2.30;;;24.40;99.90;;;;;;5056665;28;20311;-80
2024/01/22 00:25:28;;;;;;;10.00;2.58;;;24.50;99.90;;;;;;5063559;28;20220;-79
2024/01/22 00:27:59;;;;;;;8.13;2.10;;;24.50;99.90;;;;;;5052451;28;20224;-79
2024/01/22 00:30:30;;;;;;;14.95;2.35;;;24.50;99.90;;;;;;5040423;28;20228;-79
2024/01/22 00:33:01;;;;;;;7.90;2.28;;;24.50;99.90;;;;;;5060901;28;20224;-80
2024/01/22 00:35:31;;;;;;;9.95;2.47;;;24.50;99.90;;;;;;5070277;28;20253;-80
2024/01/22 00:38:02;;;;;;;8.95;1.80;;;24.50;99.90;;;;;;5069450;28;20291;-80
2024/01/22 00:40:35;;;;;;;8.00;2.00;;;24.50;99.90;;;;;;5057278;28;20237;-80
2024/01/22 00:43:06;;;;;;;14.15;2.80;;;24.40;99.90;;;;;;5051107;28;20212;-80
2024/01/22 00:45:36;;;;;;;9.77;2.53;;;24.50;99.90;;;;;;5051666;28;20698;-79
2024/01/22 00:48:08;;;;;;;8.57;1.90;;;24.60;99.90;;;;;;5059705;28;20593;-80
2024/01/22 00:50:39;;;;;;;9.90;2.38;;;24.60;99.90;;;;;;5070000;28;20232;-79
2024/01/22 00:53:12;;;;;;;11.98;2.65;;;24.60;99.90;;;;;;5059936;28;20220;-79
2024/01/22 00:55:45;;;;;;;10.30;2.42;;;24.50;99.90;;;;;;5056218;28;20215;-79
2024/01/22 00:58:16;;;;;;;8.32;2.00;;;24.50;99.90;;;;;;5049005;28;20227;-79
2024/01/22 01:00:47;;;;;;;8.55;2.25;;;24.50;99.90;;;;;;5054977;28;20393;-79
2024/01/22 01:03:18;;;;;;;8.43;2.13;;;24.60;99.90;;;;;;5053502;28;20209;-79
2024/01/22 01:05:48;;;;;;;8.90;2.40;;;24.60;99.90;;;;;;5060522;28;20312;-78
2024/01/22 01:08:22;;;;;;;7.13;3.15;;;24.70;99.90;;;;;;5050938;28;20228;-80
2024/01/22 01:10:55;;;;;;;5.80;1.83;;;24.70;99.90;;;;;;5056207;28;20228;-79
2024/01/22 01:13:26;;;;;;;9.13;2.45;;;24.80;99.90;;;;;;5061743;28;20196;-79
2024/01/22 01:15:56;;;;;;;8.07;2.08;;;24.80;99.90;;;;;;5062158;28;20220;-79
2024/01/22 01:18:27;;;;;;;8.73;1.92;;;24.80;99.90;;;;;;5055782;28;20225;-79
2024/01/22 01:20:58;;;;;;;8.65;2.40;;;24.80;99.90;;;;;;5080325;28;20191;-79
2024/01/22 01:23:29;;;;;;;5.10;1.80;;;24.70;99.90;;;;;;5091247;28;20571;-80
2024/01/22 01:26:02;;;;;;;7.88;2.17;;;24.80;99.90;;;;;;5071732;28;20286;-79
2024/01/22 01:28:33;;;;;;;6.38;1.95;;;24.80;99.90;;;;;;5065550;28;20204;-80
2024/01/22 01:31:04;;;;;;;8.50;2.17;;;24.80;99.90;;;;;;5056101;28;20288;-79
2024/01/22 01:33:35;;;;;;;8.23;2.10;;;24.80;99.90;;;;;;5068586;28;20276;-80
2024/01/22 01:36:06;;;;;;;9.60;1.80;;;24.70;99.90;;;;;;5071301;28;20201;-79
2024/01/22 01:38:37;;;;;;;9.35;2.42;;;24.70;99.90;;;;;;5069399;28;20219;-79
2024/01/22 01:41:09;;;;;;;9.02;2.30;;;24.60;99.90;;;;;;5065762;28;20208;-80
2024/01/22 01:43:40;;;;;;;10.45;2.33;;;24.50;99.90;;;;;;5074505;28;20195;-80
2024/01/22 01:46:11;;;;;;;7.38;2.03;;;24.60;99.90;;;;;;5076263;28;20728;-80
2024/01/22 01:48:42;;;;;;;9.05;2.40;;;24.60;99.90;;;;;;5072913;28;20207;-78
2024/01/22 01:51:14;;;;;;;7.78;1.92;;;24.60;99.90;;;;;;5073691;28;20224;-80
2024/01/22 01:53:45;;;;;;;7.82;2.10;;;24.70;99.90;;;;;;5068863;28;20191;-80
2024/01/22 01:56:18;;;;;;;7.82;2.28;;;24.80;99.90;;;;;;5070717;28;20200;-80
2024/01/22 01:58:50;;;;;;;9.75;2.10;;;24.80;99.90;;;;;;5060963;28;20694;-80
2024/01/22 02:01:22;;;;;;;10.05;2.10;;;24.90;99.90;;;;;;5052195;28;20239;-79
2024/01/22 02:03:53;;;;;;;8.75;2.38;;;24.90;99.90;;;;;;5059451;28;20238;-79
2024/01/22 02:06:24;;;;;;;8.40;2.45;;;25.00;99.90;;;;;;5057038;28;20278;-79
2024/01/22 02:08:55;;;;;;;8.32;2.17;;;25.00;99.90;;;;;;5052884;28;20261;-79
2024/01/22 02:11:28;;;;;;;11.70;2.25;;;25.10;99.90;;;;;;5051638;28;20232;-81
2024/01/22 02:13:59;;;;;;;8.82;2.00;;;25.20;99.90;;;;;;5050019;28;20215;-80
2024/01/22 02:16:29;;;;;;;6.63;1.55;;;25.20;99.90;;;;;;5040162;28;20228;-79
2024/01/22 02:19:01;;;;;;;7.88;1.98;;;25.10;99.90;;;;;;5043850;28;20220;-80
2024/01/22 02:21:32;;;;;;;6.53;2.40;;;25.00;99.90;;;;;;5050949;28;20223;-80
2024/01/22 02:24:05;;;;;;;8.23;2.00;;;25.00;99.90;;;;;;5050518;28;20343;-79
2024/01/22 02:26:35;;;;;;;8.13;1.98;;;24.90;99.90;;;;;;5046643;28;20223;-79
2024/01/22 02:29:06;;;;;;;7.70;2.28;;;24.90;99.90;;;;;;5068247;28;20230;-79
2024/01/22 02:31:37;;;;;;;8.18;2.13;;;24.90;99.90;;;;;;5053277;28;20220;-78
2024/01/22 02:34:08;;;;;;;5.93;2.08;;;25.00;99.90;;;;;;5058007;28;20267;-79
2024/01/22 02:36:39;;;;;;;8.52;2.25;;;25.10;99.90;;;;;;5063619;28;20207;-79
2024/01/22 02:39:12;;;;;;;9.73;1.92;;;25.20;99.90;;;;;;5053528;28;20284;-79
2024/01/22 02:41:42;;;;;;;10.45;2.17;;;25.20;99.90;;;;;;5060312;28;20232;-79
2024/01/22 02:44:13;;;;;;;7.22;2.10;;;25.20;99.90;;;;;;5051846;28;20201;-79
2024/01/22 02:46:44;;;;;;;7.63;2.10;;;25.20;99.90;;;;;;5084396;28;20230;-81
2024/01/22 02:49:15;;;;;;;5.03;1.75;;;25.20;99.90;;;;;;5063607;28;20221;-78
2024/01/22 02:51:46;;;;;;;6.53;1.73;;;25.30;99.90;;;;;;5072877;28;20589;-78
2024/01/22 02:54:19;;;;;;;7.57;1.80;;;25.20;99.90;;;;;;5067918;28;20197;-79
2024/01/22 02:56:50;;;;;;;6.93;1.65;;;25.40;99.90;;;;;;5068392;28;20559;-80
2024/01/22 02:59:21;;;;;;;5.82;1.48;;;25.50;99.90;;;;;;5072542;28;20622;-79
2024/01/22 03:01:51;;;;;;;6.32;1.90;;;25.40;99.90;;;;;;5062861;28;20193;-79
2024/01/22 03:04:22;;;;;;;9.75;1.92;;;25.50;99.90;;;;;;5058206;28;20279;-78
2024/01/22 03:06:53;;;;;;;4.93;1.80;;;25.50;99.90;;;;;;5058392;28;20196;-79
2024/01/22 03:09:26;;;;;;;6.97;1.38;;;25.50;99.90;;;;;;5072921;28;20302;-80
2024/01/22 03:11:57;;;;;;;4.90;1.52;;;25.40;99.90;;;;;;5077711;28;20227;-78
2024/01/22 03:14:28;;;;;;;6.60;1.60;;;25.40;99.90;;;;;;5086698;28;20268;-78
2024/01/22 03:16:59;;;;;;;6.47;1.50;;;25.50;99.90;;;;;;5087191;28;20227;-78
2024/01/22 03:19:29;;;;;;;6.53;1.80;;;25.50;99.90;;;;;;5054425;28;20323;-78
2024/01/22 03:22:00;;;;;;;5.70;1.25;;;25.60;99.90;;;;;;5077130;28;20263;-78
2024/01/22 03:24:33;;;;;;;6.18;1.50;;;25.60;99.90;;;;;;5062330;28;20275;-79
2024/01/22 03:27:04;;;;;;;5.22;1.45;;;25.60;99.90;;;;;;5058929;28;20212;-79
2024/01/22 03:29:34;;;;;;;3.67;1.42;;;25.70;99.90;;;;;;5061416;28;20192;-78
2024/01/22 03:32:05;;;;;;;4.82;1.35;;;25.70;99.90;;;;;;5071300;28;20223;-77
2024/01/22 03:34:36;;;;;;;5.85;1.55;;;25.60;99.90;;;;;;5072116;28;20206;-80
2024/01/22 03:37:09;;;;;;;4.15;1.52;;;25.50;99.90;;;;;;5072457;28;20203;-80
2024/01/22 03:39:42;;;;;;;5.60;1.55;;;25.50;99.90;;;;;;5071276;28;20243;-79
2024/01/22 03:42:13;;;;;;;5.80;1.48;;;25.50;99.90;;;;;;5070350;28;20646;-78
2024/01/22 03:44:43;;;;;;;6.20;1.45;;;25.40;99.90;;;;;;5064744;28;20303;-78
2024/01/22 03:47:14;;;;;;;8.95;1.73;;;25.40;99.90;;;;;;5070831;28;20200;-78
2024/01/22 03:49:45;;;;;;;5.50;1.80;;;25.40;99.90;;;;;;5071677;28;20676;-79
2024/01/22 03:52:16;;;;;;;5.05;1.70;;;25.50;99.90;;;;;;5053812;28;20224;-79
2024/01/22 03:54:49;;;;;;;8.02;1.75;;;25.60;99.90;;;;;;5061266;28;20231;-80
2024/01/22 03:57:20;;;;;;;5.20;1.40;;;25.50;99.90;;;;;;5055802;28;20323;-79
2024/01/22 03:59:51;;;;;;;5.07;1.30;;;25.50;99.90;;;;;;5075817;28;20204;-78
2024/01/22 04:02:22;;;;;;;7.90;2.13;;;25.50;99.90;;;;;;5074867;28;20263;-79
2024/01/22 04:04:53;;;;;;;6.45;1.85;;;25.50;99.90;;;;;;5073771;28;20200;-79
2024/01/22 04:07:24;;;;;;;8.43;1.80;;;25.50;99.90;;;;;;5057350;28;20289;-78
2024/01/22 04:09:57;;;;;;;4.93;1.20;;;25.50;99.90;;;;;;5050709;28;20220;-77
2024/01/22 04:12:28;;;;;;;7.10;1.75;;;25.30;99.90;;;;;;5088313;28;20230;-78
2024/01/22 04:14:58;;;;;;;4.97;1.48;;;25.40;99.90;;;;;;5090572;28;20195;-78
2024/01/22 04:17:29;;;;;;;9.98;1.70;;;25.40;99.90;;;;;;5064890;28;20203;-79
2024/01/22 04:20:00;;;;;;;6.97;1.75;;;25.40;99.90;;;;;;5070590;28;20291;-77
2024/01/22 04:22:31;;;;;;;3.50;1.33;;;25.40;99.90;;;;;;5067075;28;20284;-79
2024/01/22 04:25:04;;;;;;;5.78;1.45;;;25.50;99.90;;;;;;5047045;28;20309;-78
2024/01/22 04:27:35;;;;;;;7.20;1.63;;;25.50;99.90;;;;;;5041691;28;21008;-78
2024/01/22 04:30:07;;;;;;;9.10;1.80;;;25.60;99.90;;;;;;5060024;28;20248;-78
2024/01/22 04:32:38;;;;;;;5.88;1.40;;;25.50;99.90;;;;;;5065175;28;20224;-78
2024/01/22 04:35:09;;;;;;;6.30;1.63;;;25.50;99.90;;;;;;5062240;28;20274;-79
2024/01/22 04:37:40;;;;;;;6.22;1.77;;;25.50;99.90;;;;;;5070839;28;20200;-80
2024/01/22 04:40:17;;;;;;;9.48;1.85;;;25.40;99.90;;;;;;5057293;28;20215;-79
2024/01/22 04:42:48;;;;;;;6.68;1.45;;;25.40;99.90;;;;;;5051132;28;20204;-79
2024/01/22 04:45:19;;;;;;;6.82;1.50;;;25.30;99.90;;;;;;5055751;28;20220;-80
2024/01/22 04:47:50;;;;;;;5.90;1.40;;;25.30;99.90;;;;;;5070853;28;20200;-78
2024/01/22 04:50:20;;;;;;;8.52;1.80;;;25.30;99.90;;;;;;5087367;28;20313;-79
2024/01/22 04:52:51;;;;;;;6.68;1.63;;;25.30;99.90;;;;;;5079784;28;20307;-79
2024/01/22 04:55:24;;;;;;;6.22;1.73;;;25.40;99.90;;;;;;5060627;28;20188;-79
2024/01/22 04:57:55;;;;;;;6.97;1.60;;;25.40;99.90;;;;;;5070880;28;20642;-79
2024/01/22 05:00:26;;;;;;;8.25;1.52;;;25.50;99.90;;;;;;5062602;28;20270;-79
2024/01/22 05:02:56;;;;;;;4.85;1.33;;;25.60;99.90;;;;;;5070959;28;20286;-78
2024/01/22 05:05:27;;;;;;;5.18;1.30;;;25.80;99.90;;;;;;5071344;28;20206;-79
2024/01/22 05:07:58;;;;;;;6.13;1.63;;;26.00;99.90;;;;;;5073641;28;20311;-79
2024/01/22 05:10:31;;;;;;;4.55;1.33;;;26.00;99.90;;;;;;5074079;28;20303;-79
2024/01/22 05:13:01;;;;;;;6.20;1.50;;;26.00;99.90;;;;;;5088046;28;20219;-79
2024/01/22 05:15:32;;;;;;;4.90;1.35;;;25.90;99.90;;;;;;5075111;28;20315;-79
2024/01/22 05:18:03;;;;;;;7.40;1.85;;;25.90;99.90;;;;;;5071293;28;20220;-80
2024/01/22 05:20:34;;;;;;;5.00;1.30;;;25.90;99.90;;;;;;5073745;28;20714;-80
2024/01/22 05:23:04;;;;;;;8.20;1.50;;;25.80;99.90;;;;;;5078610;28;20233;-79
2024/01/22 05:25:37;;;;;;;8.27;1.70;;;25.70;99.90;;;;;;5085457;28;20215;-77
2024/01/22 05:28:08;;;;;;;7.03;1.55;;;25.60;99.90;;;;;;5053281;28;20216;-78
2024/01/22 05:30:39;;;;;;;5.13;1.45;;;25.60;99.90;;;;;;5054254;28;20311;-78
2024/01/22 05:33:10;;;;;;;7.13;1.80;;;25.50;99.90;;;;;;5053137;28;20220;-78
2024/01/22 05:35:40;;;;;;;11.00;2.00;;;25.50;99.90;;;;;;5050733;28;21875;-78
2024/01/22 05:38:11;;;;;;;12.88;2.50;;;25.50;99.90;;;;;;5054707;28;20569;-79
2024/01/22 05:40:44;;;;;;;6.95;1.60;;;25.30;99.90;;;;;;5085400;28;20602;-79
2024/01/22 05:43:15;;;;;;;5.40;1.70;;;25.20;99.90;;;;;;5067899;28;20701;-79
2024/01/22 05:45:46;;;;;;;6.05;1.52;;;25.20;99.90;;;;;;5070991;28;20596;-79
2024/01/22 05:48:17;;;;;;;7.38;1.75;;;25.20;99.90;;;;;;5074004;28;20650;-79
2024/01/22 05:50:47;;;;;;;5.43;1.63;;;25.10;99.90;;;;;;5074852;28;20215;-79
2024/01/22 05:53:18;;;;;;;7.82;1.50;;;25.10;99.90;;;;;;5059468;28;20954;-78
2024/01/22 05:55:56;;;;;;;6.65;1.58;;;25.20;99.90;;;;;;5065871;28;20741;-80
2024/01/22 05:58:27;;;;;;;7.28;1.85;;;25.10;99.90;;;;;;5076813;28;20211;-79
2024/01/22 06:00:58;;;;;;;7.75;2.00;;;25.10;99.90;;;;;;5077870;28;20220;-79
2024/01/22 06:03:29;;;;;;;8.90;1.73;;;25.10;99.90;;;;;;5071763;28;20235;-78
2024/01/22 06:06:00;;;;;;;5.75;1.58;;;24.90;99.90;;;;;;5072969;28;20223;-79
2024/01/22 06:08:31;;;;;;;7.82;2.00;;;24.90;99.90;;;;;;5072629;28;20297;-79
2024/01/22 06:11:04;;;;;;;9.73;1.65;;;24.90;99.90;;;;;;5070627;28;20222;-79
2024/01/22 06:13:38;;;;;;;5.70;1.48;;;24.90;99.90;;;;;;5072819;28;20597;-80
2024/01/22 06:16:10;;;;;;;7.15;1.90;;;24.90;99.90;;;;;;5076967;28;20694;-79
2024/01/22 06:18:41;;;;;;;8.15;1.65;;;24.90;99.90;;;;;;5063497;28;20231;-79
2024/01/22 06:21:12;;;;;;;7.40;1.77;;;24.90;99.90;;;;;;5070819;28;20603;-76
2024/01/22 06:23:46;;;;;;;6.25;1.92;;;24.80;99.90;;;;;;5044256;28;20227;-80
2024/01/22 06:26:19;;;;;;;7.03;2.08;;;24.80;99.90;;;;;;5067692;28;20222;-78
2024/01/22 06:28:52;;;;;;;8.68;2.00;;;24.70;99.90;;;;;;5072576;28;20220;-79
2024/01/22 06:31:23;;;;;;;7.95;2.17;;;24.80;99.90;;;;;;5072513;28;20266;-80
2024/01/22 06:33:54;;;;;;;11.32;2.20;;;24.80;99.90;;;;;;5068210;28;20596;-78
2024/01/22 06:36:28;;;;;;;7.90;2.25;;;24.70;99.90;;;;;;5087422;28;20215;-79
2024/01/22 06:38:59;;;;;;;9.18;2.40;;;24.70;99.90;;;;;;5091949;28;20215;-78
2024/01/22 06:41:32;;;;;;;10.65;2.30;;;24.70;99.90;;;;;;5073186;28;20220;-79
2024/01/22 06:44:03;;;;;;;9.02;2.40;;;24.80;99.90;;;;;;5068667;28;20345;-79
2024/01/22 06:46:34;;;;;;;8.68;2.35;;;24.70;99.90;;;;;;5052656;28;20220;-78
2024/01/22 06:49:08;;;;;;;11.35;2.47;;;24.70;99.90;;;;;;5052860;28;20557;-79
2024/01/22 06:51:39;;;;;;;7.43;2.00;;;24.60;99.90;;;;;;5061384;28;20608;-78
2024/01/22 06:54:09;;;;;;;11.55;2.63;;;24.60;99.90;;;;;;5079272;28;20677;-79
2024/01/22 06:56:42;;;;;;;11.05;2.30;;;24.50;99.90;;;;;;5074852;28;20212;-78
2024/01/22 06:59:13;;;;;;;10.52;2.80;;;24.50;99.90;;;;;;5072852;28;20212;-79
2024/01/22 07:01:44;;;;;;;8.77;2.10;;;24.40;99.90;;;;;;5072518;28;20656;-79
2024/01/22 07:04:14;;;;;;;5.55;1.75;;;24.40;99.90;;;;;;5074622;28;20601;-79
2024/01/22 07:06:45;;;;;;;10.18;1.98;;;24.40;99.90;;;;;;5091409;28;20223;-79
2024/01/22 07:09:16;;;;;;;11.15;2.20;;;24.40;99.90;;;;;;5063990;28;20655;-79
2024/01/22 07:11:49;;;;;;;10.75;2.58;;;24.40;99.90;;;;;;5054352;28;20311;-79
2024/01/22 07:14:20;;;;;;;8.52;1.92;;;24.40;99.90;;;;;;5063211;28;20212;-79
2024/01/22 07:16:51;;;;;;;8.02;1.90;;;24.40;99.90;;;;;;5088508;28;20696;-80
2024/01/22 07:19:22;;;;;;;9.52;2.33;;;24.30;99.90;;;;;;5092315;28;20276;-79
2024/01/22 07:21:52;;;;;;;8.80;1.85;;;24.30;99.90;;;;;;5092460;28;20306;-79
2024/01/22 07:24:23;;;;;;;8.10;2.10;;;24.20;99.90;;;;;;5093105;28;20649;-79
2024/01/22 07:26:56;;;;;;;10.75;2.13;;;24.30;99.90;;;;;;5063256;28;20220;-77
2024/01/22 07:29:27;;;;;;;7.32;1.90;;;24.30;99.90;;;;;;5077694;28;20690;-79
2024/01/22 07:31:57;;;;;;;8.57;2.00;;;24.30;99.90;;;;;;5092222;28;20223;-79
2024/01/22 07:34:28;;;;;;;11.57;2.17;;;24.30;99.90;;;;;;5091258;28;20215;-78
2024/01/22 07:36:59;;;;;;;11.48;2.28;;;24.30;99.90;;;;;;5087523;28;20221;-78
2024/01/22 07:39:30;;;;;;;8.32;2.10;;;24.30;99.90;;;;;;5090567;28;20250;-77
2024/01/22 07:42:03;;;;;;;10.73;3.15;;;24.30;99.90;;;;;;5069403;28;20222;-78
2024/01/22 07:44:34;;;;;;;8.80;2.20;;;24.30;99.90;;;;;;5071067;28;20302;-79
2024/01/22 07:47:04;;;;;;;8.02;2.08;;;24.30;99.90;;;;;;5076662;28;20238;-79
2024/01/22 07:49:35;;;;;;;12.18;2.65;;;24.30;99.90;;;;;;5091677;28;20219;-79
2024/01/22 07:52:06;;;;;;;10.60;3.28;;;24.20;99.90;;;;;;5090816;28;20227;-79
2024/01/22 07:54:37;;;;;;;8.52;2.40;;;24.20;99.90;;;;;;5078284;28;20647;-79
2024/01/22 07:57:10;;;;;;;11.20;2.38;;;24.20;99.90;;;;;;5065299;28;20240;-78
2024/01/22 07:59:41;;;;;;;11.07;2.40;;;24.20;99.90;;;;;;5070438;28;20216;-78
2024/01/22 08:02:11;;;;;;;9.80;1.88;;;24.20;99.90;;;;;;5050235;28;20216;-79
2024/01/22 08:04:42;;;;;;;9.05;1.92;;;24.10;99.90;;;;;;5060742;28;20206;-79
2024/01/22 08:07:13;;;;;;;7.18;2.10;;;24.20;99.90;;;;;;5083636;28;20251;-79
2024/01/22 08:09:45;;;;;;;10.48;2.05;;;24.20;99.90;;;;;;5091736;28;20206;-79
2024/01/22 08:12:20;;;;;;;10.95;2.20;;;24.10;99.90;;;;;;5071953;28;20439;-78
2024/01/22 08:14:50;;;;;;;8.02;1.85;;;24.10;99.90;;;;;;5068867;28;20262;-79
2024/01/22 08:17:21;;;;;;;8.35;2.25;;;24.10;99.90;;;;;;5061612;28;20569;-79
2024/01/22 08:19:52;;;;;;;15.55;2.53;;;24.10;99.90;;;;;;5088239;28;20199;-78
2024/01/22 08:22:23;;;;;;;8.93;1.80;;;24.10;99.90;;;;;;5091064;28;20286;-78
2024/01/22 08:24:53;;;;;;;9.52;2.20;;;24.10;99.90;;;;;;5089025;28;20192;-77
2024/01/22 08:27:26;;;;;;;11.05;2.33;;;24.00;99.90;;;;;;5055492;28;20256;-79
2024/01/22 08:29:57;;;;;;;6.57;1.63;;;24.00;99.90;;;;;;5051083;28;20207;-78
2024/01/22 08:32:28;;;;;;;8.85;1.88;;;23.90;99.90;;;;;;5062411;28;20224;-77
2024/01/22 08:34:58;;;;;;;7.10;1.95;;;23.90;99.90;;;;;;5063240;28;20553;-79
2024/01/22 08:37:29;;;;;;;10.15;1.95;;;23.90;99.90;;;;;;5083819;28;20206;-80
2024/01/22 08:40:03;;;;;;;9.25;2.10;;;23.90;99.90;;;;;;5098712;28;20201;-79
2024/01/22 08:42:35;;;;;;;9.60;2.00;;;23.90;99.90;;;;;;5089890;28;20188;-79
2024/01/22 08:45:06;;;;;;;9.32;2.00;;;23.90;99.90;;;;;;5107531;28;20197;-77
2024/01/22 08:47:37;;;;;;;7.32;1.90;;;23.90;99.90;;;;;;5103138;28;20282;-78
2024/01/22 08:50:09;;;;;;;8.63;1.65;;;23.90;99.90;;;;;;5057926;28;20192;-78
2024/01/22 08:52:39;;;;;;;7.78;1.98;;;23.90;99.90;;;;;;5071194;28;20310;-80
2024/01/22 08:55:10;;;;;;;10.10;2.08;;;23.90;99.90;;;;;;5090679;28;20733;-79
2024/01/22 08:57:43;;;;;;;9.15;2.00;;;23.90;99.90;;;;;;5086806;28;20205;-79
2024/01/22 09:00:15;;;;;;;11.02;2.28;;;23.90;99.90;;;;;;5095528;28;20199;-80
2024/01/22 09:02:46;;;;;;;10.50;2.25;;;23.90;99.90;;;;;;5095701;28;20297;-80
2024/01/22 09:05:17;;;;;;;7.47;2.03;;;23.90;99.90;;;;;;5072402;28;20280;-80
2024/01/22 09:07:48;;;;;;;11.23;2.10;;;23.90;99.90;;;;;;5063410;28;20273;-80
2024/01/22 09:10:19;;;;;;;7.68;2.13;;;23.90;99.90;;;;;;5055347;28;20201;-79
2024/01/22 09:12:52;;;;;;;8.38;1.63;;;23.90;99.90;;;;;;5073457;28;20220;-79
2024/01/22 09:15:22;;;;;;;8.65;2.00;;;24.00;99.90;;;;;;5073280;28;20188;-79
2024/01/22 09:17:53;;;;;;;8.55;1.95;;;24.00;99.90;;;;;;5072633;28;20195;-76
2024/01/22 09:20:24;;;;;;;9.95;2.00;;;24.00;99.90;;;;;;5064684;28;20204;-79
2024/01/22 09:22:55;;;;;;;6.63;1.80;;;24.00;99.90;;;;;;5073902;28;20206;-79
2024/01/22 09:25:26;;;;;;;9.60;1.75;;;24.00;99.90;;;;;;5060840;28;20238;-78
2024/01/22 09:27:59;;;;;;;4.55;1.30;;;24.00;99.90;;;;;;5092176;28;20203;-79
2024/01/22 09:30:30;;;;;;;9.30;2.00;;;23.90;99.90;;;;;;5074661;28;20708;-77
2024/01/22 09:33:00;;;;;;;9.73;2.17;;;23.90;99.90;;;;;;5065173;28;20236;-78
2024/01/22 09:35:31;;;;;;;6.68;1.60;;;23.80;99.90;;;;;;5072894;28;20195;-78
2024/01/22 09:38:02;;;;;;;7.60;1.80;;;23.80;99.90;;;;;;5053811;28;20201;-79
2024/01/22 09:40:35;;;;;;;7.95;1.85;;;23.80;99.90;;;;;;5054272;28;20651;-78
2024/01/22 09:43:09;;;;;;;11.13;1.63;;;23.70;99.90;;;;;;5078436;28;20260;-78
2024/01/22 09:45:40;;;;;;;8.07;1.85;;;23.70;99.90;;;;;;5104757;28;20206;-78
2024/01/22 09:48:12;;;;;;;7.97;1.90;;;23.70;99.90;;;;;;5107523;28;20278;-79
2024/01/22 09:50:44;;;;;;;6.60;1.70;;;23.70;99.90;;;;;;5097400;28;20195;-78
2024/01/22 09:53:17;;;;;;;9.48;1.98;;;23.60;99.90;;;;;;5089016;28;20229;-79
2024/01/22 09:55:49;;;;;;;6.20;1.92;;;23.60;99.90;;;;;;5087968;28;20207;-80
2024/01/22 09:58:29;;;;;;;7.68;2.17;;;23.60;99.90;;;;;;5065839;28;20203;-78
2024/01/22 10:01:04;;;;;;;8.43;2.05;;;23.70;99.90;;;;;;5053368;28;20196;-80
2024/01/22 10:03:35;;;;;;;5.85;1.60;;;23.70;99.90;;;;;;5090046;28;20195;-79
2024/01/22 10:06:07;;;;;;;6.00;1.48;;;23.70;99.90;;;;;;5093591;28;20753;-80
2024/01/22 10:08:37;;;;;;;9.35;1.90;;;23.70;99.90;;;;;;5082324;28;20706;-80
2024/01/22 10:11:09;;;;;;;5.47;1.45;;;23.70;99.90;;;;;;5060144;28;20199;-79
2024/01/22 10:13:56;;;;;;;10.20;2.20;;;23.70;99.90;;;;;;5073423;28;20589;-80
2024/01/22 10:16:28;;;;;;;9.45;2.13;;;23.70;99.90;;;;;;5083377;28;20242;-79
2024/01/22 10:19:00;;;;;;;6.85;1.80;;;23.70;99.90;;;;;;5092922;28;20555;-80
2024/01/22 10:21:31;;;;;;;6.65;1.70;;;23.70;99.90;;;;;;5086953;28;20223;-79
2024/01/22 10:24:03;;;;;;;8.15;1.70;;;23.70;99.90;;;;;;5084152;28;20215;-79
2024/01/22 10:26:34;;;;;;;8.43;2.00;;;23.70;99.90;;;;;;5080774;28;20206;-79
2024/01/22 10:29:29;;;;;;;11.45;2.10;;;23.70;99.90;;;;;;5071811;28;20231;-80
2024/01/22 10:32:00;;;;;;;7.10;1.65;;;23.80;99.90;;;;;;5057104;28;20196;-79
2024/01/22 10:34:32;;;;;;;8.27;1.98;;;23.80;99.90;;;;;;5072651;28;20329;-79
2024/01/22 10:37:10;;;;;;;9.38;2.25;;;23.80;99.90;;;;;;5072908;28;20690;-79
2024/01/22 10:39:43;;;;;;;12.18;1.92;;;23.70;99.90;;;;;;5083910;28;20692;-78
2024/01/22 10:42:15;;;;;;;9.70;1.88;;;23.70;99.90;;;;;;5075568;28;20254;-78
2024/01/22 10:44:50;;;;;;;7.28;1.65;;;23.60;99.90;;;;;;5071412;28;20641;-79
2024/01/22 10:47:20;;;;;;;8.27;1.88;;;23.70;99.90;;;;;;5092976;28;20664;-78
2024/01/22 10:49:54;;;;;;;8.35;1.83;;;23.70;99.90;;;;;;5078739;28;20278;-78
2024/01/22 10:52:25;;;;;;;8.48;1.75;;;23.70;99.90;;;;;;5052744;28;20196;-77
2024/01/22 10:54:56;;;;;;;6.85;2.00;;;23.70;99.90;;;;;;5055245;28;20204;-78
2024/01/22 10:57:32;;;;;;;8.77;1.52;;;23.60;99.90;;;;;;5076380;28;20199;-78
2024/01/22 11:00:06;;;;;;;10.52;1.85;;;23.60;99.90;;;;;;5079886;28;20278;-77
2024/01/22 11:02:42;;;;;;;14.70;2.45;;;23.60;99.90;;;;;;5076545;28;20202;-77
2024/01/22 11:05:19;;;;;;;10.85;2.03;;;23.60;99.90;;;;;;5093344;28;20744;-77
2024/01/22 11:07:54;;;;;;;9.18;1.75;;;23.60;99.90;;;;;;5071526;28;20259;-78
2024/01/22 11:10:26;;;;;;;8.48;1.83;;;23.60;99.90;;;;;;5059737;28;20202;-78
2024/01/22 11:12:57;;;;;;;7.05;1.65;;;23.60;99.90;;;;;;5061316;28;20232;-77
2024/01/22 11:15:30;;;;;;;6.65;1.65;;;23.60;99.90;;;;;;5063564;28;20242;-79
2024/01/22 11:18:01;;;;;;;8.05;1.67;;;23.60;99.90;;;;;;5062044;28;20241;-80
2024/01/22 11:20:32;;;;;;;6.88;1.90;;;23.60;99.90;;;;;;5051627;28;20197;-77
2024/01/22 11:23:04;;;;;;;6.72;1.67;;;23.60;99.90;;;;;;5064252;28;20246;-78
2024/01/22 11:25:35;;;;;;;7.93;2.08;;;23.60;99.90;;;;;;5076953;28;20268;-78
2024/01/22 11:28:09;;;;;;;7.10;1.70;;;23.60;99.90;;;;;;5066835;28;20685;-78
2024/01/22 11:30:42;;;;;;;6.63;1.67;;;23.60;99.90;;;;;;5071482;28;20274;-79
2024/01/22 11:33:34;;;;;;;6.50;1.60;;;23.60;99.90;;;;;;5083258;28;20271;-79
2024/01/22 11:36:05;;;;;;;5.75;1.50;;;23.60;99.90;;;;;;5063042;28;20217;-78
2024/01/22 11:38:54;;;;;;;6.30;1.60;;;23.60;99.90;;;;;;5091792;28;20218;-78
2024/01/22 11:41:33;;;;;;;8.02;2.03;;;23.60;99.90;;;;;;5061582;28;20276;-78
2024/01/22 11:44:04;;;;;;;6.97;1.80;;;23.60;99.90;;;;;;5090736;28;20203;-79
2024/01/22 11:46:37;;;;;;;7.68;1.80;;;23.60;99.90;;;;;;5091759;28;20191;-78
2024/01/22 11:49:12;;;;;;;6.40;1.88;;;23.50;99.90;;;;;;5076972;28;20210;-77
2024/01/22 11:51:44;;;;;;;6.10;1.70;;;23.50;99.90;;;;;;5082822;28;20666;-77
2024/01/22 11:54:14;;;;;;;7.20;2.13;;;23.50;99.90;;;;;;5054618;28;20783;-77
2024/01/22 11:56:46;;;;;;;11.38;2.10;;;23.60;99.90;;;;;;5053482;28;20201;-77
2024/01/22 11:59:19;;;;;;;7.18;1.80;;;23.60;99.90;;;;;;5067723;28;20196;-77
2024/01/22 12:01:51;;;;;;;10.73;2.10;;;23.60;99.90;;;;;;5072945;28;20206;-76
2024/01/22 12:04:23;;;;;;;9.63;2.00;;;23.60;99.90;;;;;;5091686;28;20195;-76
2024/01/22 12:06:54;;;;;;;8.30;1.90;;;23.60;99.90;;;;;;5067529;28;20738;-76
2024/01/22 12:09:24;;;;;;;13.80;2.38;;;23.60;99.90;;;;;;5068943;28;20285;-77
2024/01/22 12:11:55;;;;;;;12.45;2.10;;;23.60;99.90;;;;;;5053929;28;20220;-76
2024/01/22 12:14:27;;;;;;;11.00;2.03;;;23.60;99.90;;;;;;5059239;28;20224;-77
2024/01/22 12:17:06;;;;;;;11.85;2.03;;;23.60;99.90;;;;;;5065183;28;20204;-76
2024/01/22 12:19:36;;;;;;;11.60;2.38;;;23.60;99.90;;;;;;5077368;28;20230;-77
2024/01/22 12:22:08;;;;;;;13.77;2.08;;;23.60;99.90;;;;;;5088457;28;20199;-76
2024/01/22 12:24:39;;;;;;;11.43;2.40;;;23.50;99.90;;;;;;5090953;28;20207;-77
2024/01/22 12:27:10;;;;;;;10.52;2.22;;;23.50;99.90;;;;;;5067275;28;20200;-77
2024/01/22 12:29:41;;;;;;;9.38;2.00;;;23.50;99.90;;;;;;5078521;28;20198;-77
2024/01/22 12:32:14;;;;;;;7.78;1.75;;;23.50;99.90;;;;;;5059141;28;20209;-77
2024/01/22 12:34:45;;;;;;;8.80;2.10;;;23.50;99.90;;;;;;5055438;28;20318;-77
2024/01/22 12:37:18;;;;;;;8.93;1.77;;;23.50;99.90;;;;;;5091143;28;20260;-77
2024/01/22 12:39:49;;;;;;;7.88;1.50;;;23.60;99.90;;;;;;5088039;28;20203;-77
2024/01/22 12:42:23;;;;;;;4.82;1.38;;;23.60;99.90;;;;;;5091125;28;20342;-77
2024/01/22 12:45:00;;;;;;;6.82;1.60;;;23.60;99.90;;;;;;5080833;28;20203;-77
2024/01/22 12:47:33;;;;;;;6.35;1.60;;;23.70;99.90;;;;;;5073183;28;20196;-76
2024/01/22 12:50:04;;;;;;;8.25;1.63;;;23.70;99.90;;;;;;5085667;28;20199;-78
2024/01/22 12:52:35;;;;;;;7.10;1.70;;;23.70;99.90;;;;;;5090647;28;20260;-78
2024/01/22 12:55:06;;;;;;;7.30;1.67;;;23.80;99.90;;;;;;5090699;28;20233;-78
2024/01/22 12:57:37;;;;;;;8.40;1.60;;;23.70;99.90;;;;;;5089419;28;20207;-78
2024/01/22 13:00:09;;;;;;;7.28;1.65;;;23.80;99.90;;;;;;5058883;28;20219;-78
2024/01/22 13:02:43;;;;;;;6.25;1.60;;;23.80;99.90;;;;;;5065987;28;20203;-77
2024/01/22 13:05:13;;;;;;;10.65;1.73;;;23.80;99.90;;;;;;5067011;28;20243;-76
2024/01/22 13:07:44;;;;;;;6.70;1.50;;;23.80;99.90;;;;;;5074106;28;20661;-77